Latest Weather Observations for Port Hedland

IDW60801

Issued at 4:05 pm WST Monday 1 September 2014 (issued every 30 minutes, with the page automatically refreshed every 10 minutes)

About weather observations | Map of weather stations | Latest weather observations for WA | Other Formats
Station Details ID: 004032 Name: PORT HEDLAND AIRPORT Lat: -20.37 Lon: 118.63 Height: 6.4 m
Data from the previous 72 hours. | See also: Recent months at Port Hedland
Date/Time
WST
Temp
°C
App
Temp
°C
Dew
Point
Rel
Hum
%
Delta-T
°C
Wind Press
QNH
hPa
Press
MSL
hPa
Rain
since 9 am
mm
Dir
 
Spd
km/h
Gust
km/h
Spd
kts
Gust
kts
01/04:00pm 30.0 24.6 4.4 19 13.2 N 22 30 12 16 1012.6 - 0.0
01/03:30pm 31.1 24.6 -2.5 11 15.5 NNW 22 28 12 15 1013.1 - 0.0
01/03:00pm 31.5 25.6 -0.9 12 15.4 N 20 26 11 14 1013.3 1013.3 0.0
01/02:30pm 30.9 25.6 1.9 15 14.4 NNW 19 22 10 12 1013.5 - 0.0
01/02:00pm 30.7 26.6 8.7 25 12.2 N 20 24 11 13 1014.0 - 0.0
01/01:30pm 31.1 27.3 7.4 22 12.9 N 17 20 9 11 1014.4 - 0.0
01/01:00pm 32.4 28.1 3.0 15 15.0 N 15 19 8 10 1014.5 - 0.0
01/12:30pm 32.0 28.7 6.3 20 13.8 N 13 17 7 9 1014.8 - 0.0
01/12:00pm 29.7 27.2 11.0 31 10.7 N 15 19 8 10 1015.3 1015.3 0.0
01/11:30am 29.3 27.0 10.4 31 10.7 N 13 17 7 9 1015.8 - 0.0
01/11:00am 27.6 25.6 14.0 43 8.1 NNE 17 20 9 11 1016.0 - 0.0
01/10:30am 26.1 24.0 13.5 45 7.4 NNE 17 24 9 13 1016.4 - 0.0
01/10:00am 26.7 23.7 9.2 33 9.6 NNE 15 20 8 11 1016.5 - 0.0
01/09:30am 25.8 22.0 4.1 24 10.8 N 13 17 7 9 1016.5 - 0.0
01/09:00am 25.2 22.4 5.0 27 10.2 NNE 9 13 5 7 1016.4 1016.4 0.0
01/08:30am 25.1 22.2 2.8 23 10.8 NE 7 11 4 6 1016.1 - 0.0
01/08:00am 23.8 20.2 0.9 22 10.6 SE 9 13 5 7 1015.7 - 0.0
01/07:30am 19.7 15.5 -0.9 25 8.9 SSE 11 15 6 8 1015.2 - 0.0
01/07:00am 17.0 13.3 -0.3 31 7.4 S 9 13 5 7 1015.0 - 0.0
01/06:30am 12.6 10.3 0.3 43 5.1 S 2 7 1 4 1014.6 - 0.0
01/06:00am 15.5 11.3 -1.2 32 6.9 S 11 13 6 7 1014.3 1014.3 0.0
01/05:30am 14.8 10.7 -0.2 36 6.3 S 11 13 6 7 1014.1 - 0.0
01/05:00am 15.7 10.7 -1.2 31 7.0 S 15 20 8 11 1013.8 - 0.0
01/04:30am 15.7 10.8 -0.8 32 6.9 S 15 17 8 9 1013.6 - 0.0
01/04:00am 15.5 10.3 -0.1 34 6.6 S 17 22 9 12 1013.4 - 0.0
01/03:30am 15.6 10.5 0.8 36 6.4 S 17 19 9 10 1013.4 - 0.0
01/03:00am 14.1 10.6 3.5 49 4.8 S 11 15 6 8 1013.6 1013.6 0.0
01/02:30am 15.0 11.8 5.0 51 4.7 S 11 13 6 7 1013.6 - 0.0
01/02:00am 15.6 12.1 5.3 50 4.9 S 13 17 7 9 1013.9 - 0.0
01/01:30am 15.7 12.5 6.7 55 4.4 S 13 15 7 8 1014.1 - 0.0
01/01:00am 15.6 13.2 8.5 62 3.6 S 11 13 6 7 1014.4 - 0.0
01/12:30am 15.4 12.9 9.6 68 3.0 SSW 13 15 7 8 1014.6 - 0.0
01/12:00am 16.1 13.6 9.8 66 3.3 SSW 13 15 7 8 1014.7 1014.7 0.0
 
Date/Time
WST
Temp
°C
App
Temp
°C
Dew
Point
Rel
Hum
%
Delta-T
°C
Wind Press
QNH
hPa
Press
MSL
hPa
Rain
since 9 am
mm
Dir
 
Spd
km/h
Gust
km/h
Spd
kts
Gust
kts
31/11:30pm 16.0 13.8 10.9 72 2.7 SSW 13 13 7 7 1014.7 - 0.0
31/11:00pm 16.7 14.9 12.1 74 2.5 SW 13 15 7 8 1015.0 - 0.0
31/10:30pm 17.1 15.5 12.8 76 2.4 SSW 13 13 7 7 1015.0 - 0.0
31/10:00pm 17.4 16.3 13.1 76 2.4 SW 11 11 6 6 1015.1 - 0.0
31/09:30pm 17.6 17.0 14.5 82 1.8 SW 11 13 6 7 1015.2 - 0.0
31/09:00pm 17.5 16.7 15.1 86 1.4 WSW 13 13 7 7 1015.0 1015.0 0.0
31/08:30pm 18.0 17.3 15.4 85 1.5 WSW 13 13 7 7 1014.8 - 0.0
31/08:00pm 18.9 19.0 15.5 80 2.0 W 9 9 5 5 1014.4 - 0.0
31/07:30pm 19.6 19.7 15.5 77 2.4 W 9 11 5 6 1014.1 - 0.0
31/07:00pm 19.9 19.0 14.8 72 3.0 W 13 13 7 7 1013.8 - 0.0
31/06:30pm 21.0 20.0 14.7 67 3.7 WNW 13 15 7 8 1013.4 - 0.0
31/06:00pm 23.2 21.9 12.5 51 6.1 NW 11 13 6 7 1013.4 1013.4 0.0
31/05:30pm 26.5 23.8 10.2 36 9.1 NNW 15 19 8 10 1013.1 - 0.0
31/05:00pm 28.9 25.1 7.6 26 11.5 N 17 22 9 12 1013.0 - 0.0
31/04:30pm 30.1 25.4 5.2 20 13.0 N 19 24 10 13 1013.0 - 0.0
31/04:00pm 30.4 25.9 7.1 23 12.6 NNW 20 26 11 14 1013.0 - 0.0
31/03:30pm 30.9 25.8 6.1 21 13.2 NNW 22 26 12 14 1012.9 - 0.0
31/03:00pm 32.1 28.0 7.8 22 13.4 NNW 19 26 10 14 1012.9 1012.9 0.0
31/02:30pm 32.5 27.7 5.4 18 14.4 NNW 20 26 11 14 1013.0 - 0.0
31/02:00pm 33.0 27.4 1.3 13 15.8 NNW 20 28 11 15 1013.2 - 0.0
31/01:30pm 32.2 26.8 2.2 15 15.1 N 20 24 11 13 1013.6 - 0.0
31/01:00pm 32.9 27.0 -2.3 10 16.5 NNE 19 24 10 13 1013.9 - 0.0
31/12:30pm 32.9 26.9 -2.9 10 16.6 NNE 19 22 10 12 1014.3 - 0.0
31/12:00pm 33.3 27.1 -5.0 8 17.2 NNE 19 24 10 13 1014.7 1014.7 0.0
31/11:30am 33.0 27.5 -5.4 8 17.1 NNE 15 20 8 11 1014.9 - 0.0
31/11:00am 32.8 28.8 -5.6 8 17.0 NNE 7 19 4 10 1015.4 - 0.0
31/10:30am 32.6 27.6 -12.8 5 17.8 SSE 9 17 5 9 1015.8 - 0.0
31/10:00am 32.0 26.4 -11.3 5 17.3 S 13 17 7 9 1016.1 - 0.0
31/09:30am 30.9 24.3 -15.6 4 17.1 SSW 17 20 9 11 1016.3 - 0.0
31/09:00am 29.2 22.6 -14.8 5 16.1 S 17 20 9 11 1016.3 1016.3 0.0
31/08:30am 27.0 22.7 -1.8 15 13.0 S 11 20 6 11 1016.2 - 0.0
31/08:00am 23.5 20.9 9.5 41 7.6 SSE 13 17 7 9 1016.1 - 0.0
31/07:30am 19.2 16.7 1.8 31 7.9 SSE 4 9 2 5 1015.8 - 0.0
31/07:00am 15.2 11.2 0.8 37 6.2 SSE 11 15 6 8 1015.4 - 0.0
31/06:30am 12.8 8.8 0.3 42 5.2 S 11 13 6 7 1015.2 - 0.0
31/06:00am 13.3 9.2 -0.3 39 5.6 S 11 13 6 7 1014.9 1014.9 0.0
31/05:30am 13.3 9.2 -0.3 39 5.6 S 11 13 6 7 1014.7 - 0.0
31/05:00am 13.8 9.3 -0.1 38 5.8 S 13 15 7 8 1014.6 - 0.0
31/04:30am 12.4 8.5 1.3 46 4.7 S 11 15 6 8 1014.4 - 0.0
31/04:00am 13.5 9.2 1.1 43 5.3 S 13 17 7 9 1014.3 - 0.0
31/03:30am 12.0 8.9 3.4 55 3.8 S 9 11 5 6 1014.3 - 0.0
31/03:00am 12.9 9.7 4.9 58 3.7 S 11 15 6 8 1014.5 1014.5 0.0
31/02:30am 14.0 10.6 6.0 58 3.8 S 13 15 7 8 1014.7 - 0.0
31/02:00am 13.6 10.3 7.9 68 2.8 SSW 15 17 8 9 1014.9 - 0.0
31/01:30am 14.0 10.3 6.5 60 3.6 SSW 15 17 8 9 1015.1 - 0.0
31/01:00am 13.9 10.8 7.1 63 3.3 SSW 13 13 7 7 1015.2 - 0.0
31/12:30am 14.7 12.6 8.1 64 3.3 S 9 11 5 6 1015.5 - 0.0
31/12:00am 15.4 12.8 9.2 66 3.2 SSW 13 17 7 9 1015.6 1015.6 0.0
 
Date/Time
WST
Temp
°C
App
Temp
°C
Dew
Point
Rel
Hum
%
Delta-T
°C
Wind Press
QNH
hPa
Press
MSL
hPa
Rain
since 9 am
mm
Dir
 
Spd
km/h
Gust
km/h
Spd
kts
Gust
kts
30/11:30pm 15.4 13.7 10.0 70 2.8 SSW 9 11 5 6 1015.7 - 0.0
30/11:00pm 15.3 13.4 10.6 73 2.5 SSW 11 13 6 7 1015.8 - 0.0
30/10:30pm 15.8 14.7 12.1 78 2.0 SSW 9 11 5 6 1015.9 - 0.0
30/10:00pm 16.0 15.0 12.3 79 2.0 SSW 9 11 5 6 1016.1 - 0.0
30/09:30pm 16.4 15.9 13.9 85 1.4 SSW 9 9 5 5 1016.3 - 0.0
30/09:00pm 17.2 16.4 15.0 87 1.3 WSW 13 13 7 7 1016.4 1016.4 0.0
30/08:30pm 17.9 17.1 15.2 84 1.6 WSW 13 13 7 7 1016.3 - 0.0
30/08:00pm 18.0 17.6 15.3 84 1.6 W 11 13 6 7 1016.2 - 0.0
30/07:30pm 18.5 18.2 15.4 82 1.8 W 11 13 6 7 1015.9 - 0.0
30/07:00pm 19.2 18.5 15.3 78 2.3 W 13 15 7 8 1015.7 - 0.0
30/06:30pm 20.1 19.2 14.8 71 3.1 WNW 13 15 7 8 1015.4 - 0.0
30/06:00pm 22.2 22.4 17.7 75 2.8 WNW 13 15 7 8 1015.2 1015.2 0.0
30/05:30pm 25.2 28.4 23.7 91 1.0 NW 13 17 7 9 1015.1 - 0.0
30/05:00pm 26.8 31.1 26.7 99 0.1 NNW 17 22 9 12 1015.0 - 0.0
30/04:30pm 28.3 33.4 28.3 100 0.0 N 19 24 10 13 1014.7 - 0.0
30/04:00pm 28.2 33.0 28.2 100 0.0 N 20 26 11 14 1014.7 - 0.0
30/03:30pm 29.3 34.2 29.3 100 0.0 N 24 30 13 16 1014.4 - 0.0
30/03:00pm 31.7 38.2 31.7 100 0.0 N 26 33 14 18 1014.4 1014.4 0.0
30/02:30pm 32.3 39.7 32.3 100 0.0 N 24 28 13 15 1014.2 - 0.0
30/02:00pm 32.6 41.6 32.6 100 0.0 N 17 22 9 12 1014.4 - 0.0
30/01:30pm 32.6 41.0 32.6 100 0.0 N 20 24 11 13 1014.9 - 0.0
30/01:00pm 32.4 40.7 32.4 100 0.0 N 20 26 11 14 1015.4 - 0.0
30/12:30pm 32.7 41.1 32.4 98 0.2 N 19 24 10 13 1015.7 - 0.0
30/12:00pm 32.6 41.0 31.0 91 1.2 N 13 20 7 11 1015.9 1015.9 0.0
30/11:30am 32.4 39.5 29.9 87 1.9 N 15 20 8 11 1016.4 - 0.0
30/11:00am 32.1 39.8 30.2 90 1.4 ENE 13 22 7 12 1016.8 - 0.0
30/10:30am 31.8 38.4 27.7 79 3.0 SSE 9 19 5 10 1017.1 - 0.0
30/10:00am 31.0 35.2 25.9 74 3.6 SSE 15 22 8 12 1017.5 - 0.0
30/09:30am 29.9 31.1 20.0 55 6.5 SSE 13 19 7 10 1017.7 - 0.0
30/09:00am 28.4 28.0 16.3 47 7.5 S 13 19 7 10 1017.8 1017.8 0.0
30/08:30am 26.0 23.3 7.5 30 9.8 SE 11 15 6 8 1017.8 - 0.0
30/08:00am 22.6 18.1 -3.1 18 10.9 SE 11 13 6 7 1017.6 - 0.0
30/07:30am 18.3 13.7 -3.9 22 8.9 SSE 11 13 6 7 1017.2 - 0.0
30/07:00am 15.2 10.2 -3.9 26 7.4 SSE 13 17 7 9 1017.0 - 0.0
30/06:30am 13.0 8.6 -2.7 33 6.1 SSE 11 13 6 7 1016.7 - 0.0
30/06:00am 12.7 8.2 -3.2 33 6.1 S 11 13 6 7 1016.5 1016.5 0.0
30/05:30am 13.1 8.3 -2.9 33 6.2 S 13 15 7 8 1016.2 - 0.0
30/05:00am 13.0 7.4 -2.7 33 6.1 SSE 17 17 9 9 1016.1 - 0.0
30/04:30am 12.8 8.2 -1.1 38 5.6 S 13 17 7 9 1016.1 - 0.0
30/04:00am 13.3 8.7 -1.4 36 5.9 S 13 15 7 8 1016.0 - 0.0
30/03:30am 13.6 9.0 -1.2 36 6.0 S 13 15 7 8 1016.1 - 0.0
30/03:00am 13.3 8.7 -1.0 37 5.8 S 13 15 7 8 1016.2 1016.2 0.0
30/02:30am 12.6 8.4 -0.7 40 5.4 S 11 15 6 8 1016.4 - 0.0
30/02:00am 13.4 9.4 0.2 40 5.5 S 11 15 6 8 1016.5 - 0.0
30/01:30am 14.0 9.5 -0.2 37 5.9 S 13 15 7 8 1016.7 - 0.0
30/01:00am 12.9 9.0 1.4 45 4.9 S 11 13 6 7 1016.9 - 0.0
30/12:30am 14.1 10.3 1.9 43 5.3 S 11 13 6 7 1017.0 - 0.0
30/12:00am 14.9 10.8 2.5 43 5.5 S 13 15 7 8 1017.1 1017.1 0.0
 
Date/Time
WST
Temp
°C
App
Temp
°C
Dew
Point
Rel
Hum
%
Delta-T
°C
Wind Press
QNH
hPa
Press
MSL
hPa
Rain
since 9 am
mm
Dir
 
Spd
km/h
Gust
km/h
Spd
kts
Gust
kts
29/11:30pm 13.8 10.8 4.2 52 4.4 S 9 11 5 6 1017.2 - 0.0
29/11:00pm 14.1 11.5 5.9 57 3.9 S 9 11 5 6 1017.3 - 0.0
29/10:30pm 16.0 13.4 7.6 57 4.2 S 11 15 6 8 1017.4 - 0.0
29/10:00pm 15.2 13.1 9.6 69 2.9 S 11 13 6 7 1017.4 - 0.0
29/09:30pm 15.6 13.2 10.0 69 2.9 SSW 13 17 7 9 1017.4 - 0.0
29/09:00pm 16.4 17.1 12.2 76 2.3 CALM 0 0 0 0 1017.2 1017.2 0.0
29/08:30pm 17.0 17.6 11.9 72 2.8 CALM 0 0 0 0 1017.0 - 0.0
29/08:00pm 16.9 18.1 13.7 81 1.8 CALM 0 6 0 3 1016.8 - 0.0
29/07:30pm 17.9 17.9 13.5 75 2.5 NW 6 7 3 4 1016.6 - 0.0
29/07:00pm 20.1 19.3 14.0 68 3.5 N 11 13 6 7 1016.2 - 0.0
29/06:30pm 19.9 18.7 11.6 58 4.6 NNW 9 11 5 6 1016.0 - 0.0
29/06:00pm 21.5 19.3 10.7 50 5.9 N 13 15 7 8 1015.7 1015.7 0.0
29/05:30pm 24.4 21.3 8.8 37 8.4 N 15 19 8 10 1015.6 - 0.0
29/05:00pm 25.8 21.5 6.9 30 9.9 N 19 24 10 13 1015.4 - 0.0
29/04:30pm 26.9 21.7 5.5 25 11.0 N 22 28 12 15 1015.4 - 0.0

Other Formats:

Comma delimited format used in spreadsheet applications
http://www.bom.gov.au/fwo/IDW60801/IDW60801.94312.axf

JavaScript Object Notation format (JSON) in row-major order
http://www.bom.gov.au/fwo/IDW60801/IDW60801.94312.json